sensor_id;sensor_type;location;lat;lon;timestamp;P1;durP1;ratioP1;P2;durP2;ratioP2
47958;SDS011;33718;50.910;-1.514;2023-10-19T00:01:42;25.50;;;1.75;;
47958;SDS011;33718;50.910;-1.514;2023-10-19T00:03:44;11.25;;;1.67;;
47958;SDS011;33718;50.910;-1.514;2023-10-19T00:05:46;26.52;;;2.85;;
47958;SDS011;33718;50.910;-1.514;2023-10-19T00:07:50;13.77;;;1.98;;
47958;SDS011;33718;50.910;-1.514;2023-10-19T00:09:54;30.95;;;2.40;;
47958;SDS011;33718;50.910;-1.514;2023-10-19T00:11:56;25.92;;;1.73;;
47958;SDS011;33718;50.910;-1.514;2023-10-19T00:13:59;28.83;;;2.42;;
47958;SDS011;33718;50.910;-1.514;2023-10-19T00:16:01;17.90;;;1.70;;
47958;SDS011;33718;50.910;-1.514;2023-10-19T00:18:15;20.58;;;2.20;;
47958;SDS011;33718;50.910;-1.514;2023-10-19T00:20:17;20.25;;;1.92;;
47958;SDS011;33718;50.910;-1.514;2023-10-19T00:22:48;23.52;;;2.15;;
47958;SDS011;33718;50.910;-1.514;2023-10-19T00:24:50;24.38;;;2.20;;
47958;SDS011;33718;50.910;-1.514;2023-10-19T00:26:52;26.75;;;3.00;;
47958;SDS011;33718;50.910;-1.514;2023-10-19T00:28:56;19.60;;;2.08;;
47958;SDS011;33718;50.910;-1.514;2023-10-19T00:30:57;24.58;;;2.15;;
47958;SDS011;33718;50.910;-1.514;2023-10-19T00:33:04;17.13;;;4.00;;
47958;SDS011;33718;50.910;-1.514;2023-10-19T00:35:16;22.80;;;2.60;;
47958;SDS011;33718;50.910;-1.514;2023-10-19T00:37:35;18.90;;;2.25;;
47958;SDS011;33718;50.910;-1.514;2023-10-19T00:39:43;19.58;;;2.47;;
47958;SDS011;33718;50.910;-1.514;2023-10-19T00:41:49;14.93;;;1.75;;
47958;SDS011;33718;50.910;-1.514;2023-10-19T00:43:51;14.48;;;1.95;;
47958;SDS011;33718;50.910;-1.514;2023-10-19T00:46:13;13.43;;;2.00;;
47958;SDS011;33718;50.910;-1.514;2023-10-19T00:48:28;23.13;;;2.75;;
47958;SDS011;33718;50.910;-1.514;2023-10-19T00:50:30;20.65;;;2.55;;
47958;SDS011;33718;50.910;-1.514;2023-10-19T00:52:33;30.75;;;2.60;;
47958;SDS011;33718;50.910;-1.514;2023-10-19T00:54:44;25.17;;;3.33;;
47958;SDS011;33718;50.910;-1.514;2023-10-19T00:56:54;22.20;;;2.53;;
47958;SDS011;33718;50.910;-1.514;2023-10-19T00:59:03;33.35;;;3.42;;
47958;SDS011;33718;50.910;-1.514;2023-10-19T01:01:29;29.08;;;3.72;;
47958;SDS011;33718;50.910;-1.514;2023-10-19T01:03:31;37.33;;;4.25;;
47958;SDS011;33718;50.910;-1.514;2023-10-19T01:05:38;30.80;;;3.53;;
47958;SDS011;33718;50.910;-1.514;2023-10-19T01:07:41;32.92;;;4.50;;
47958;SDS011;33718;50.910;-1.514;2023-10-19T01:09:48;52.92;;;4.82;;
47958;SDS011;33718;50.910;-1.514;2023-10-19T01:11:56;48.67;;;5.82;;
47958;SDS011;33718;50.910;-1.514;2023-10-19T01:14:25;52.65;;;5.95;;
47958;SDS011;33718;50.910;-1.514;2023-10-19T01:16:31;44.38;;;5.10;;
47958;SDS011;33718;50.910;-1.514;2023-10-19T01:18:35;48.17;;;5.25;;
47958;SDS011;33718;50.910;-1.514;2023-10-19T01:20:38;53.03;;;5.80;;
47958;SDS011;33718;50.910;-1.514;2023-10-19T01:22:58;33.17;;;4.68;;
47958;SDS011;33718;50.910;-1.514;2023-10-19T01:25:17;41.90;;;4.88;;
47958;SDS011;33718;50.910;-1.514;2023-10-19T01:27:22;61.30;;;6.80;;
47958;SDS011;33718;50.910;-1.514;2023-10-19T01:29:26;46.47;;;6.13;;
47958;SDS011;33718;50.910;-1.514;2023-10-19T01:31:30;46.85;;;7.03;;
47958;SDS011;33718;50.910;-1.514;2023-10-19T01:33:33;57.90;;;8.20;;
47958;SDS011;33718;50.910;-1.514;2023-10-19T01:35:38;39.67;;;5.38;;
47958;SDS011;33718;50.910;-1.514;2023-10-19T01:38:00;46.90;;;4.03;;
47958;SDS011;33718;50.910;-1.514;2023-10-19T01:40:04;50.67;;;5.47;;
47958;SDS011;33718;50.910;-1.514;2023-10-19T01:42:08;44.83;;;6.03;;
47958;SDS011;33718;50.910;-1.514;2023-10-19T01:44:20;40.58;;;3.95;;
47958;SDS011;33718;50.910;-1.514;2023-10-19T01:46:23;39.85;;;4.90;;
47958;SDS011;33718;50.910;-1.514;2023-10-19T01:48:34;37.90;;;5.03;;
47958;SDS011;33718;50.910;-1.514;2023-10-19T01:50:37;35.22;;;4.38;;
47958;SDS011;33718;50.910;-1.514;2023-10-19T01:54:46;47.47;;;3.85;;
47958;SDS011;33718;50.910;-1.514;2023-10-19T01:56:52;40.42;;;5.45;;
47958;SDS011;33718;50.910;-1.514;2023-10-19T01:58:56;41.47;;;4.82;;
47958;SDS011;33718;50.910;-1.514;2023-10-19T02:01:03;28.17;;;3.35;;
47958;SDS011;33718;50.910;-1.514;2023-10-19T02:03:09;45.70;;;5.40;;
47958;SDS011;33718;50.910;-1.514;2023-10-19T02:05:11;39.45;;;4.70;;
47958;SDS011;33718;50.910;-1.514;2023-10-19T02:07:19;44.55;;;4.40;;
47958;SDS011;33718;50.910;-1.514;2023-10-19T02:09:22;45.80;;;4.97;;
47958;SDS011;33718;50.910;-1.514;2023-10-19T02:11:26;43.50;;;4.93;;
47958;SDS011;33718;50.910;-1.514;2023-10-19T02:13:28;35.38;;;4.03;;
47958;SDS011;33718;50.910;-1.514;2023-10-19T02:15:29;48.67;;;5.35;;
47958;SDS011;33718;50.910;-1.514;2023-10-19T02:17:31;48.13;;;4.38;;
47958;SDS011;33718;50.910;-1.514;2023-10-19T02:19:33;56.22;;;6.72;;
47958;SDS011;33718;50.910;-1.514;2023-10-19T02:21:34;36.67;;;4.13;;
47958;SDS011;33718;50.910;-1.514;2023-10-19T02:23:40;46.63;;;4.55;;
47958;SDS011;33718;50.910;-1.514;2023-10-19T02:25:45;34.15;;;3.72;;
47958;SDS011;33718;50.910;-1.514;2023-10-19T02:27:47;47.78;;;6.53;;
47958;SDS011;33718;50.910;-1.514;2023-10-19T02:29:49;44.65;;;5.47;;
47958;SDS011;33718;50.910;-1.514;2023-10-19T02:31:53;38.78;;;5.22;;
47958;SDS011;33718;50.910;-1.514;2023-10-19T02:33:56;43.67;;;4.25;;
47958;SDS011;33718;50.910;-1.514;2023-10-19T02:36:03;39.35;;;3.75;;
47958;SDS011;33718;50.910;-1.514;2023-10-19T02:38:14;34.92;;;4.70;;
47958;SDS011;33718;50.910;-1.514;2023-10-19T02:40:15;49.53;;;4.05;;
47958;SDS011;33718;50.910;-1.514;2023-10-19T02:42:25;40.70;;;5.03;;
47958;SDS011;33718;50.910;-1.514;2023-10-19T02:44:27;37.35;;;6.53;;
47958;SDS011;33718;50.910;-1.514;2023-10-19T02:46:32;44.03;;;4.78;;
47958;SDS011;33718;50.910;-1.514;2023-10-19T02:48:34;45.72;;;4.10;;
47958;SDS011;33718;50.910;-1.514;2023-10-19T02:50:36;32.25;;;6.15;;
47958;SDS011;33718;50.910;-1.514;2023-10-19T02:52:38;30.40;;;4.38;;
47958;SDS011;33718;50.910;-1.514;2023-10-19T02:54:39;55.20;;;5.03;;
47958;SDS011;33718;50.910;-1.514;2023-10-19T02:56:41;49.53;;;5.38;;
47958;SDS011;33718;50.910;-1.514;2023-10-19T02:58:45;46.83;;;4.65;;
47958;SDS011;33718;50.910;-1.514;2023-10-19T03:00:54;51.58;;;6.38;;
47958;SDS011;33718;50.910;-1.514;2023-10-19T03:02:56;44.55;;;5.85;;
47958;SDS011;33718;50.910;-1.514;2023-10-19T03:04:58;43.00;;;4.93;;
47958;SDS011;33718;50.910;-1.514;2023-10-19T03:07:00;46.08;;;5.20;;
47958;SDS011;33718;50.910;-1.514;2023-10-19T03:09:05;31.88;;;3.70;;
47958;SDS011;33718;50.910;-1.514;2023-10-19T03:11:17;49.78;;;4.65;;
47958;SDS011;33718;50.910;-1.514;2023-10-19T03:13:18;63.85;;;8.95;;
47958;SDS011;33718;50.910;-1.514;2023-10-19T03:15:20;43.33;;;5.47;;
47958;SDS011;33718;50.910;-1.514;2023-10-19T03:17:22;50.17;;;5.88;;
47958;SDS011;33718;50.910;-1.514;2023-10-19T03:19:30;40.25;;;4.32;;
47958;SDS011;33718;50.910;-1.514;2023-10-19T03:21:31;39.85;;;6.72;;
47958;SDS011;33718;50.910;-1.514;2023-10-19T03:23:44;47.05;;;5.68;;
47958;SDS011;33718;50.910;-1.514;2023-10-19T03:25:45;40.38;;;4.55;;
47958;SDS011;33718;50.910;-1.514;2023-10-19T03:28:13;42.85;;;5.43;;
47958;SDS011;33718;50.910;-1.514;2023-10-19T03:30:17;39.35;;;4.68;;
47958;SDS011;33718;50.910;-1.514;2023-10-19T03:32:20;41.42;;;3.85;;
47958;SDS011;33718;50.910;-1.514;2023-10-19T03:34:29;36.13;;;6.53;;
47958;SDS011;33718;50.910;-1.514;2023-10-19T03:36:36;45.80;;;5.13;;
47958;SDS011;33718;50.910;-1.514;2023-10-19T03:38:39;39.75;;;4.70;;
47958;SDS011;33718;50.910;-1.514;2023-10-19T03:40:42;51.17;;;5.30;;
47958;SDS011;33718;50.910;-1.514;2023-10-19T03:42:48;47.58;;;5.00;;
47958;SDS011;33718;50.910;-1.514;2023-10-19T03:44:50;38.33;;;5.45;;
47958;SDS011;33718;50.910;-1.514;2023-10-19T03:46:55;33.28;;;4.30;;
47958;SDS011;33718;50.910;-1.514;2023-10-19T03:49:05;35.33;;;5.00;;
47958;SDS011;33718;50.910;-1.514;2023-10-19T03:51:12;33.40;;;3.65;;
47958;SDS011;33718;50.910;-1.514;2023-10-19T03:53:23;31.58;;;3.85;;
47958;SDS011;33718;50.910;-1.514;2023-10-19T03:55:27;28.38;;;4.57;;
47958;SDS011;33718;50.910;-1.514;2023-10-19T03:57:30;32.60;;;4.38;;
47958;SDS011;33718;50.910;-1.514;2023-10-19T03:59:34;41.53;;;4.38;;
47958;SDS011;33718;50.910;-1.514;2023-10-19T04:01:36;38.35;;;4.03;;
47958;SDS011;33718;50.910;-1.514;2023-10-19T04:03:41;28.42;;;4.18;;
47958;SDS011;33718;50.910;-1.514;2023-10-19T04:05:48;35.05;;;4.43;;
47958;SDS011;33718;50.910;-1.514;2023-10-19T04:08:05;44.63;;;4.68;;
47958;SDS011;33718;50.910;-1.514;2023-10-19T04:10:21;28.95;;;4.65;;
47958;SDS011;33718;50.910;-1.514;2023-10-19T04:12:56;39.33;;;4.40;;
47958;SDS011;33718;50.910;-1.514;2023-10-19T04:15:05;40.95;;;6.28;;
47958;SDS011;33718;50.910;-1.514;2023-10-19T04:17:25;37.50;;;4.00;;
47958;SDS011;33718;50.910;-1.514;2023-10-19T04:19:34;40.95;;;5.05;;
47958;SDS011;33718;50.910;-1.514;2023-10-19T04:21:37;34.70;;;3.95;;
47958;SDS011;33718;50.910;-1.514;2023-10-19T04:23:53;28.55;;;2.75;;
47958;SDS011;33718;50.910;-1.514;2023-10-19T04:26:00;39.72;;;3.47;;
47958;SDS011;33718;50.910;-1.514;2023-10-19T04:28:09;32.88;;;3.53;;
47958;SDS011;33718;50.910;-1.514;2023-10-19T04:30:23;38.53;;;4.47;;
47958;SDS011;33718;50.910;-1.514;2023-10-19T04:32:39;31.55;;;4.28;;
47958;SDS011;33718;50.910;-1.514;2023-10-19T04:34:49;29.00;;;4.30;;
47958;SDS011;33718;50.910;-1.514;2023-10-19T04:36:56;55.28;;;5.47;;
47958;SDS011;33718;50.910;-1.514;2023-10-19T04:42:09;47.03;;;4.85;;
47958;SDS011;33718;50.910;-1.514;2023-10-19T04:46:54;44.53;;;4.43;;
47958;SDS011;33718;50.910;-1.514;2023-10-19T04:49:09;40.72;;;4.63;;
47958;SDS011;33718;50.910;-1.514;2023-10-19T04:51:23;30.92;;;5.03;;
47958;SDS011;33718;50.910;-1.514;2023-10-19T04:53:28;36.97;;;3.78;;
47958;SDS011;33718;50.910;-1.514;2023-10-19T04:55:29;52.90;;;4.88;;
47958;SDS011;33718;50.910;-1.514;2023-10-19T04:57:31;47.45;;;6.20;;
47958;SDS011;33718;50.910;-1.514;2023-10-19T04:59:37;45.90;;;5.95;;
47958;SDS011;33718;50.910;-1.514;2023-10-19T05:01:41;47.72;;;6.00;;
47958;SDS011;33718;50.910;-1.514;2023-10-19T05:03:45;47.83;;;4.60;;
47958;SDS011;33718;50.910;-1.514;2023-10-19T05:08:00;48.45;;;5.25;;
47958;SDS011;33718;50.910;-1.514;2023-10-19T05:10:02;61.35;;;6.63;;
47958;SDS011;33718;50.910;-1.514;2023-10-19T05:12:06;43.70;;;5.78;;
47958;SDS011;33718;50.910;-1.514;2023-10-19T05:14:13;43.30;;;6.07;;
47958;SDS011;33718;50.910;-1.514;2023-10-19T05:16:25;41.15;;;4.97;;
47958;SDS011;33718;50.910;-1.514;2023-10-19T05:18:29;40.33;;;5.78;;
47958;SDS011;33718;50.910;-1.514;2023-10-19T05:20:38;47.88;;;4.88;;
47958;SDS011;33718;50.910;-1.514;2023-10-19T05:22:43;38.42;;;4.43;;
47958;SDS011;33718;50.910;-1.514;2023-10-19T05:24:46;45.20;;;5.40;;
47958;SDS011;33718;50.910;-1.514;2023-10-19T05:26:51;61.85;;;6.53;;
47958;SDS011;33718;50.910;-1.514;2023-10-19T05:29:00;51.63;;;6.03;;
47958;SDS011;33718;50.910;-1.514;2023-10-19T05:31:13;50.03;;;5.40;;
47958;SDS011;33718;50.910;-1.514;2023-10-19T05:33:38;42.92;;;4.22;;
47958;SDS011;33718;50.910;-1.514;2023-10-19T05:35:40;50.15;;;6.10;;
47958;SDS011;33718;50.910;-1.514;2023-10-19T05:37:42;54.65;;;5.72;;
47958;SDS011;33718;50.910;-1.514;2023-10-19T05:39:44;43.90;;;5.70;;
47958;SDS011;33718;50.910;-1.514;2023-10-19T05:41:46;40.47;;;4.75;;
47958;SDS011;33718;50.910;-1.514;2023-10-19T05:43:48;56.28;;;6.43;;
47958;SDS011;33718;50.910;-1.514;2023-10-19T05:47:56;48.33;;;6.22;;
47958;SDS011;33718;50.910;-1.514;2023-10-19T05:50:12;47.70;;;4.78;;
47958;SDS011;33718;50.910;-1.514;2023-10-19T05:52:21;49.40;;;4.82;;
47958;SDS011;33718;50.910;-1.514;2023-10-19T05:54:32;52.97;;;8.82;;
47958;SDS011;33718;50.910;-1.514;2023-10-19T05:56:34;45.30;;;4.90;;
47958;SDS011;33718;50.910;-1.514;2023-10-19T05:58:37;50.30;;;5.20;;
47958;SDS011;33718;50.910;-1.514;2023-10-19T06:00:40;48.28;;;4.78;;
47958;SDS011;33718;50.910;-1.514;2023-10-19T06:02:44;42.60;;;4.72;;
47958;SDS011;33718;50.910;-1.514;2023-10-19T06:04:47;38.03;;;4.28;;
47958;SDS011;33718;50.910;-1.514;2023-10-19T06:09:21;40.63;;;3.95;;
47958;SDS011;33718;50.910;-1.514;2023-10-19T06:11:31;43.60;;;5.28;;
47958;SDS011;33718;50.910;-1.514;2023-10-19T06:13:42;43.53;;;4.57;;
47958;SDS011;33718;50.910;-1.514;2023-10-19T06:15:45;45.10;;;5.07;;
47958;SDS011;33718;50.910;-1.514;2023-10-19T06:17:55;33.53;;;4.90;;
47958;SDS011;33718;50.910;-1.514;2023-10-19T06:20:01;42.75;;;4.35;;
47958;SDS011;33718;50.910;-1.514;2023-10-19T06:22:06;42.25;;;4.38;;
47958;SDS011;33718;50.910;-1.514;2023-10-19T06:24:10;39.20;;;5.05;;
47958;SDS011;33718;50.910;-1.514;2023-10-19T06:26:32;46.70;;;5.20;;
47958;SDS011;33718;50.910;-1.514;2023-10-19T06:28:34;44.72;;;4.85;;
47958;SDS011;33718;50.910;-1.514;2023-10-19T06:30:40;52.47;;;4.55;;
47958;SDS011;33718;50.910;-1.514;2023-10-19T06:32:41;46.63;;;7.13;;
47958;SDS011;33718;50.910;-1.514;2023-10-19T06:34:43;41.80;;;4.57;;
47958;SDS011;33718;50.910;-1.514;2023-10-19T06:36:48;27.67;;;3.20;;
47958;SDS011;33718;50.910;-1.514;2023-10-19T06:39:02;43.30;;;4.45;;
47958;SDS011;33718;50.910;-1.514;2023-10-19T06:41:12;40.65;;;7.78;;
47958;SDS011;33718;50.910;-1.514;2023-10-19T06:43:20;37.28;;;4.60;;
47958;SDS011;33718;50.910;-1.514;2023-10-19T06:45:25;37.53;;;5.30;;
47958;SDS011;33718;50.910;-1.514;2023-10-19T06:47:28;30.95;;;3.58;;
47958;SDS011;33718;50.910;-1.514;2023-10-19T06:49:31;46.40;;;4.88;;
47958;SDS011;33718;50.910;-1.514;2023-10-19T06:51:32;47.13;;;4.53;;
47958;SDS011;33718;50.910;-1.514;2023-10-19T06:53:34;30.33;;;3.40;;
47958;SDS011;33718;50.910;-1.514;2023-10-19T06:55:38;26.38;;;3.40;;
47958;SDS011;33718;50.910;-1.514;2023-10-19T06:58:00;46.70;;;7.55;;
47958;SDS011;33718;50.910;-1.514;2023-10-19T07:00:20;34.65;;;4.50;;
47958;SDS011;33718;50.910;-1.514;2023-10-19T07:03:05;39.28;;;4.32;;
47958;SDS011;33718;50.910;-1.514;2023-10-19T07:05:10;41.80;;;4.70;;
47958;SDS011;33718;50.910;-1.514;2023-10-19T07:07:31;36.65;;;5.22;;
47958;SDS011;33718;50.910;-1.514;2023-10-19T07:09:35;29.95;;;3.50;;
47958;SDS011;33718;50.910;-1.514;2023-10-19T07:12:07;47.88;;;4.32;;
47958;SDS011;33718;50.910;-1.514;2023-10-19T07:14:11;46.38;;;5.30;;
47958;SDS011;33718;50.910;-1.514;2023-10-19T07:16:35;47.63;;;3.90;;
47958;SDS011;33718;50.910;-1.514;2023-10-19T07:18:50;38.85;;;5.07;;
47958;SDS011;33718;50.910;-1.514;2023-10-19T07:21:01;33.40;;;4.05;;
47958;SDS011;33718;50.910;-1.514;2023-10-19T07:23:12;24.52;;;4.05;;
47958;SDS011;33718;50.910;-1.514;2023-10-19T07:25:36;35.45;;;3.95;;
47958;SDS011;33718;50.910;-1.514;2023-10-19T07:27:50;35.17;;;4.32;;
47958;SDS011;33718;50.910;-1.514;2023-10-19T07:29:56;38.17;;;5.05;;
47958;SDS011;33718;50.910;-1.514;2023-10-19T07:32:14;36.00;;;4.15;;
47958;SDS011;33718;50.910;-1.514;2023-10-19T07:34:24;38.38;;;4.38;;
47958;SDS011;33718;50.910;-1.514;2023-10-19T07:36:33;45.80;;;4.78;;
47958;SDS011;33718;50.910;-1.514;2023-10-19T07:38:40;36.35;;;4.25;;
47958;SDS011;33718;50.910;-1.514;2023-10-19T07:40:50;30.83;;;5.30;;
47958;SDS011;33718;50.910;-1.514;2023-10-19T07:42:59;33.85;;;4.30;;
47958;SDS011;33718;50.910;-1.514;2023-10-19T07:45:04;35.05;;;3.10;;
47958;SDS011;33718;50.910;-1.514;2023-10-19T07:47:15;53.63;;;7.38;;
47958;SDS011;33718;50.910;-1.514;2023-10-19T07:49:20;54.72;;;5.30;;
47958;SDS011;33718;50.910;-1.514;2023-10-19T07:51:25;30.40;;;3.75;;
47958;SDS011;33718;50.910;-1.514;2023-10-19T07:53:31;27.13;;;3.20;;
47958;SDS011;33718;50.910;-1.514;2023-10-19T07:55:35;34.15;;;4.50;;
47958;SDS011;33718;50.910;-1.514;2023-10-19T07:57:42;42.50;;;4.50;;
47958;SDS011;33718;50.910;-1.514;2023-10-19T07:59:44;40.15;;;7.07;;
47958;SDS011;33718;50.910;-1.514;2023-10-19T08:01:46;37.88;;;3.47;;
47958;SDS011;33718;50.910;-1.514;2023-10-19T08:03:47;38.25;;;6.68;;
47958;SDS011;33718;50.910;-1.514;2023-10-19T08:05:49;32.47;;;3.83;;
47958;SDS011;33718;50.910;-1.514;2023-10-19T08:07:51;37.15;;;5.30;;
47958;SDS011;33718;50.910;-1.514;2023-10-19T08:09:52;39.25;;;3.90;;
47958;SDS011;33718;50.910;-1.514;2023-10-19T08:11:54;34.03;;;4.05;;
47958;SDS011;33718;50.910;-1.514;2023-10-19T08:14:02;36.00;;;5.13;;
47958;SDS011;33718;50.910;-1.514;2023-10-19T08:16:04;38.65;;;4.85;;
47958;SDS011;33718;50.910;-1.514;2023-10-19T08:18:08;31.48;;;3.33;;
47958;SDS011;33718;50.910;-1.514;2023-10-19T08:20:14;23.15;;;4.85;;
47958;SDS011;33718;50.910;-1.514;2023-10-19T08:22:24;25.25;;;3.08;;
47958;SDS011;33718;50.910;-1.514;2023-10-19T08:24:28;31.60;;;4.13;;
47958;SDS011;33718;50.910;-1.514;2023-10-19T08:26:32;23.08;;;3.83;;
47958;SDS011;33718;50.910;-1.514;2023-10-19T08:28:34;36.10;;;4.95;;
47958;SDS011;33718;50.910;-1.514;2023-10-19T08:30:35;37.88;;;4.35;;
47958;SDS011;33718;50.910;-1.514;2023-10-19T08:32:39;29.85;;;4.10;;
47958;SDS011;33718;50.910;-1.514;2023-10-19T08:34:41;33.80;;;5.28;;
47958;SDS011;33718;50.910;-1.514;2023-10-19T08:36:43;24.83;;;2.70;;
47958;SDS011;33718;50.910;-1.514;2023-10-19T08:38:45;20.52;;;4.10;;
47958;SDS011;33718;50.910;-1.514;2023-10-19T08:40:47;24.90;;;4.25;;
47958;SDS011;33718;50.910;-1.514;2023-10-19T08:42:49;24.08;;;3.90;;
47958;SDS011;33718;50.910;-1.514;2023-10-19T08:44:51;25.58;;;3.65;;
47958;SDS011;33718;50.910;-1.514;2023-10-19T08:46:52;31.45;;;3.28;;
47958;SDS011;33718;50.910;-1.514;2023-10-19T08:48:58;21.10;;;3.63;;
47958;SDS011;33718;50.910;-1.514;2023-10-19T08:51:01;26.02;;;3.05;;
47958;SDS011;33718;50.910;-1.514;2023-10-19T08:53:04;22.63;;;3.70;;
47958;SDS011;33718;50.910;-1.514;2023-10-19T08:55:06;25.13;;;2.85;;
47958;SDS011;33718;50.910;-1.514;2023-10-19T08:57:09;29.92;;;4.75;;
47958;SDS011;33718;50.910;-1.514;2023-10-19T08:59:11;21.30;;;2.55;;
47958;SDS011;33718;50.910;-1.514;2023-10-19T09:01:13;29.42;;;3.65;;
47958;SDS011;33718;50.910;-1.514;2023-10-19T09:03:14;26.90;;;3.35;;
47958;SDS011;33718;50.910;-1.514;2023-10-19T09:05:18;18.52;;;3.05;;
47958;SDS011;33718;50.910;-1.514;2023-10-19T09:07:29;26.35;;;4.72;;
47958;SDS011;33718;50.910;-1.514;2023-10-19T09:09:32;28.10;;;4.25;;
47958;SDS011;33718;50.910;-1.514;2023-10-19T09:11:34;26.70;;;4.00;;
47958;SDS011;33718;50.910;-1.514;2023-10-19T09:13:46;23.13;;;2.67;;
47958;SDS011;33718;50.910;-1.514;2023-10-19T09:15:48;21.23;;;2.78;;
47958;SDS011;33718;50.910;-1.514;2023-10-19T09:17:51;19.77;;;2.83;;
47958;SDS011;33718;50.910;-1.514;2023-10-19T09:19:56;23.73;;;3.13;;
47958;SDS011;33718;50.910;-1.514;2023-10-19T09:21:58;22.15;;;3.03;;
47958;SDS011;33718;50.910;-1.514;2023-10-19T09:24:00;28.88;;;2.60;;
47958;SDS011;33718;50.910;-1.514;2023-10-19T09:26:02;23.52;;;3.75;;
47958;SDS011;33718;50.910;-1.514;2023-10-19T09:28:13;23.92;;;3.35;;
47958;SDS011;33718;50.910;-1.514;2023-10-19T09:30:15;27.80;;;3.70;;
47958;SDS011;33718;50.910;-1.514;2023-10-19T09:32:20;17.73;;;3.03;;
47958;SDS011;33718;50.910;-1.514;2023-10-19T09:34:21;26.58;;;2.50;;
47958;SDS011;33718;50.910;-1.514;2023-10-19T09:36:24;39.70;;;4.20;;
47958;SDS011;33718;50.910;-1.514;2023-10-19T09:38:28;26.13;;;3.10;;
47958;SDS011;33718;50.910;-1.514;2023-10-19T09:40:30;23.00;;;3.92;;
47958;SDS011;33718;50.910;-1.514;2023-10-19T09:42:31;28.60;;;3.25;;
47958;SDS011;33718;50.910;-1.514;2023-10-19T09:44:34;17.92;;;2.45;;
47958;SDS011;33718;50.910;-1.514;2023-10-19T09:46:40;15.63;;;2.45;;
47958;SDS011;33718;50.910;-1.514;2023-10-19T09:48:43;26.48;;;4.38;;
47958;SDS011;33718;50.910;-1.514;2023-10-19T09:50:50;18.45;;;3.70;;
47958;SDS011;33718;50.910;-1.514;2023-10-19T09:52:56;27.27;;;3.40;;
47958;SDS011;33718;50.910;-1.514;2023-10-19T09:55:12;29.83;;;3.03;;
47958;SDS011;33718;50.910;-1.514;2023-10-19T09:57:16;26.20;;;3.40;;
47958;SDS011;33718;50.910;-1.514;2023-10-19T09:59:22;27.92;;;2.70;;
47958;SDS011;33718;50.910;-1.514;2023-10-19T10:01:25;24.40;;;2.85;;
47958;SDS011;33718;50.910;-1.514;2023-10-19T10:03:43;22.33;;;3.25;;
47958;SDS011;33718;50.910;-1.514;2023-10-19T10:05:46;20.05;;;3.85;;
47958;SDS011;33718;50.910;-1.514;2023-10-19T10:08:02;22.10;;;3.03;;
47958;SDS011;33718;50.910;-1.514;2023-10-19T10:10:10;23.08;;;2.72;;
47958;SDS011;33718;50.910;-1.514;2023-10-19T10:12:23;24.50;;;3.45;;
47958;SDS011;33718;50.910;-1.514;2023-10-19T10:14:29;20.38;;;3.05;;
47958;SDS011;33718;50.910;-1.514;2023-10-19T10:16:33;23.83;;;3.33;;
47958;SDS011;33718;50.910;-1.514;2023-10-19T10:18:37;27.83;;;3.30;;
47958;SDS011;33718;50.910;-1.514;2023-10-19T10:20:40;25.83;;;3.30;;
47958;SDS011;33718;50.910;-1.514;2023-10-19T10:23:15;21.90;;;3.65;;
47958;SDS011;33718;50.910;-1.514;2023-10-19T10:25:27;34.70;;;3.88;;
47958;SDS011;33718;50.910;-1.514;2023-10-19T10:27:40;30.45;;;5.05;;
47958;SDS011;33718;50.910;-1.514;2023-10-19T10:29:54;17.17;;;2.92;;
47958;SDS011;33718;50.910;-1.514;2023-10-19T10:31:56;24.42;;;2.97;;
47958;SDS011;33718;50.910;-1.514;2023-10-19T10:34:01;27.02;;;3.35;;
47958;SDS011;33718;50.910;-1.514;2023-10-19T10:36:07;28.92;;;6.18;;
47958;SDS011;33718;50.910;-1.514;2023-10-19T10:38:10;36.83;;;3.97;;
47958;SDS011;33718;50.910;-1.514;2023-10-19T10:40:18;23.60;;;2.35;;
47958;SDS011;33718;50.910;-1.514;2023-10-19T10:42:21;24.85;;;3.60;;
47958;SDS011;33718;50.910;-1.514;2023-10-19T10:44:35;39.72;;;5.10;;
47958;SDS011;33718;50.910;-1.514;2023-10-19T10:46:42;35.20;;;4.80;;
47958;SDS011;33718;50.910;-1.514;2023-10-19T10:48:49;28.52;;;3.08;;
47958;SDS011;33718;50.910;-1.514;2023-10-19T10:50:51;25.48;;;3.67;;
47958;SDS011;33718;50.910;-1.514;2023-10-19T10:53:00;26.33;;;3.55;;
47958;SDS011;33718;50.910;-1.514;2023-10-19T10:55:08;23.50;;;2.70;;
47958;SDS011;33718;50.910;-1.514;2023-10-19T10:57:15;19.55;;;3.30;;
47958;SDS011;33718;50.910;-1.514;2023-10-19T10:59:19;41.17;;;3.53;;
47958;SDS011;33718;50.910;-1.514;2023-10-19T11:01:31;27.95;;;5.03;;
47958;SDS011;33718;50.910;-1.514;2023-10-19T11:03:42;28.15;;;4.15;;
47958;SDS011;33718;50.910;-1.514;2023-10-19T11:05:44;32.72;;;3.58;;
47958;SDS011;33718;50.910;-1.514;2023-10-19T11:10:06;28.75;;;4.88;;
47958;SDS011;33718;50.910;-1.514;2023-10-19T11:12:11;26.05;;;4.97;;
47958;SDS011;33718;50.910;-1.514;2023-10-19T11:14:13;27.33;;;3.20;;
47958;SDS011;33718;50.910;-1.514;2023-10-19T11:16:21;30.30;;;4.03;;
47958;SDS011;33718;50.910;-1.514;2023-10-19T11:20:31;34.28;;;4.28;;
47958;SDS011;33718;50.910;-1.514;2023-10-19T11:22:33;27.63;;;3.47;;
47958;SDS011;33718;50.910;-1.514;2023-10-19T11:24:34;21.25;;;2.83;;
47958;SDS011;33718;50.910;-1.514;2023-10-19T11:26:41;31.02;;;4.43;;
47958;SDS011;33718;50.910;-1.514;2023-10-19T11:28:43;16.02;;;3.53;;
47958;SDS011;33718;50.910;-1.514;2023-10-19T11:30:48;25.40;;;2.83;;
47958;SDS011;33718;50.910;-1.514;2023-10-19T11:32:51;17.08;;;2.90;;
47958;SDS011;33718;50.910;-1.514;2023-10-19T11:34:58;15.98;;;2.80;;
47958;SDS011;33718;50.910;-1.514;2023-10-19T11:37:00;16.38;;;2.00;;
47958;SDS011;33718;50.910;-1.514;2023-10-19T11:39:04;18.15;;;2.20;;
47958;SDS011;33718;50.910;-1.514;2023-10-19T11:41:06;19.08;;;4.18;;
47958;SDS011;33718;50.910;-1.514;2023-10-19T11:43:09;19.88;;;3.42;;
47958;SDS011;33718;50.910;-1.514;2023-10-19T11:45:10;18.20;;;2.95;;
47958;SDS011;33718;50.910;-1.514;2023-10-19T11:47:13;18.80;;;2.25;;
47958;SDS011;33718;50.910;-1.514;2023-10-19T11:49:15;24.80;;;4.00;;
47958;SDS011;33718;50.910;-1.514;2023-10-19T11:51:16;22.58;;;2.88;;
47958;SDS011;33718;50.910;-1.514;2023-10-19T11:53:18;29.50;;;2.83;;
47958;SDS011;33718;50.910;-1.514;2023-10-19T11:55:19;25.75;;;2.75;;
47958;SDS011;33718;50.910;-1.514;2023-10-19T11:57:26;22.25;;;2.88;;
47958;SDS011;33718;50.910;-1.514;2023-10-19T11:59:27;23.20;;;3.67;;
47958;SDS011;33718;50.910;-1.514;2023-10-19T12:01:29;19.88;;;2.00;;
47958;SDS011;33718;50.910;-1.514;2023-10-19T12:03:31;23.13;;;2.97;;
47958;SDS011;33718;50.910;-1.514;2023-10-19T12:05:33;20.40;;;2.90;;
47958;SDS011;33718;50.910;-1.514;2023-10-19T12:07:38;22.00;;;2.55;;
47958;SDS011;33718;50.910;-1.514;2023-10-19T12:09:40;27.80;;;3.88;;
47958;SDS011;33718;50.910;-1.514;2023-10-19T12:11:46;22.48;;;2.28;;
47958;SDS011;33718;50.910;-1.514;2023-10-19T12:13:49;17.27;;;2.50;;
47958;SDS011;33718;50.910;-1.514;2023-10-19T12:15:51;11.20;;;1.55;;
47958;SDS011;33718;50.910;-1.514;2023-10-19T12:17:56;34.47;;;4.75;;
47958;SDS011;33718;50.910;-1.514;2023-10-19T12:19:59;25.08;;;3.17;;
47958;SDS011;33718;50.910;-1.514;2023-10-19T12:22:01;24.77;;;3.00;;
47958;SDS011;33718;50.910;-1.514;2023-10-19T12:24:04;14.98;;;3.28;;
47958;SDS011;33718;50.910;-1.514;2023-10-19T12:26:06;17.75;;;2.17;;
47958;SDS011;33718;50.910;-1.514;2023-10-19T12:28:12;20.55;;;2.38;;
47958;SDS011;33718;50.910;-1.514;2023-10-19T12:30:15;26.05;;;1.98;;
47958;SDS011;33718;50.910;-1.514;2023-10-19T12:32:24;13.25;;;2.13;;
47958;SDS011;33718;50.910;-1.514;2023-10-19T12:34:27;19.70;;;2.35;;
47958;SDS011;33718;50.910;-1.514;2023-10-19T12:36:31;13.30;;;1.63;;
47958;SDS011;33718;50.910;-1.514;2023-10-19T12:38:33;20.50;;;2.50;;